sensor_id;sensor_type;location;lat;lon;timestamp;P1;durP1;ratioP1;P2;durP2;ratioP2
34896;SDS011;43407;51.828;-2.298;2024-01-25T00:01:09;19.42;;;4.88;;
34896;SDS011;43407;51.828;-2.298;2024-01-25T00:03:35;14.07;;;4.22;;
34896;SDS011;43407;51.828;-2.298;2024-01-25T00:06:00;22.20;;;4.80;;
34896;SDS011;43407;51.828;-2.298;2024-01-25T00:08:25;16.48;;;4.13;;
34896;SDS011;43407;51.828;-2.298;2024-01-25T00:10:51;12.13;;;3.58;;
34896;SDS011;43407;51.828;-2.298;2024-01-25T00:13:16;12.40;;;3.67;;
34896;SDS011;43407;51.828;-2.298;2024-01-25T00:15:41;14.98;;;5.18;;
34896;SDS011;43407;51.828;-2.298;2024-01-25T00:18:06;14.25;;;4.03;;
34896;SDS011;43407;51.828;-2.298;2024-01-25T00:20:32;13.82;;;4.47;;
34896;SDS011;43407;51.828;-2.298;2024-01-25T00:22:57;14.43;;;4.95;;
34896;SDS011;43407;51.828;-2.298;2024-01-25T00:25:22;13.27;;;4.18;;
34896;SDS011;43407;51.828;-2.298;2024-01-25T00:27:48;16.73;;;5.10;;
34896;SDS011;43407;51.828;-2.298;2024-01-25T00:30:13;16.48;;;4.70;;
34896;SDS011;43407;51.828;-2.298;2024-01-25T00:32:38;15.70;;;4.88;;
34896;SDS011;43407;51.828;-2.298;2024-01-25T00:35:04;14.50;;;4.05;;
34896;SDS011;43407;51.828;-2.298;2024-01-25T00:37:29;14.88;;;4.97;;
34896;SDS011;43407;51.828;-2.298;2024-01-25T00:39:55;14.48;;;4.82;;
34896;SDS011;43407;51.828;-2.298;2024-01-25T00:42:22;16.80;;;4.30;;
34896;SDS011;43407;51.828;-2.298;2024-01-25T00:44:47;16.67;;;5.18;;
34896;SDS011;43407;51.828;-2.298;2024-01-25T00:47:13;14.93;;;4.25;;
34896;SDS011;43407;51.828;-2.298;2024-01-25T00:49:38;14.27;;;4.15;;
34896;SDS011;43407;51.828;-2.298;2024-01-25T00:52:04;16.08;;;4.80;;
34896;SDS011;43407;51.828;-2.298;2024-01-25T00:54:29;17.65;;;4.68;;
34896;SDS011;43407;51.828;-2.298;2024-01-25T00:56:55;10.50;;;3.78;;
34896;SDS011;43407;51.828;-2.298;2024-01-25T00:59:20;10.13;;;3.90;;
34896;SDS011;43407;51.828;-2.298;2024-01-25T01:01:46;14.68;;;4.10;;
34896;SDS011;43407;51.828;-2.298;2024-01-25T01:04:13;7.72;;;3.25;;
34896;SDS011;43407;51.828;-2.298;2024-01-25T01:06:38;12.50;;;4.15;;
34896;SDS011;43407;51.828;-2.298;2024-01-25T01:09:03;15.52;;;4.50;;
34896;SDS011;43407;51.828;-2.298;2024-01-25T01:11:29;13.48;;;3.70;;
34896;SDS011;43407;51.828;-2.298;2024-01-25T01:13:54;18.58;;;4.70;;
34896;SDS011;43407;51.828;-2.298;2024-01-25T01:16:20;10.68;;;3.78;;
34896;SDS011;43407;51.828;-2.298;2024-01-25T01:18:46;12.43;;;4.18;;
34896;SDS011;43407;51.828;-2.298;2024-01-25T01:21:11;12.68;;;3.63;;
34896;SDS011;43407;51.828;-2.298;2024-01-25T01:23:36;12.63;;;3.50;;
34896;SDS011;43407;51.828;-2.298;2024-01-25T01:26:03;14.07;;;3.88;;
34896;SDS011;43407;51.828;-2.298;2024-01-25T01:28:28;13.63;;;3.70;;
34896;SDS011;43407;51.828;-2.298;2024-01-25T01:30:54;12.55;;;3.78;;
34896;SDS011;43407;51.828;-2.298;2024-01-25T01:33:19;12.50;;;3.67;;
34896;SDS011;43407;51.828;-2.298;2024-01-25T01:35:44;12.70;;;4.10;;
34896;SDS011;43407;51.828;-2.298;2024-01-25T01:38:10;14.13;;;3.90;;
34896;SDS011;43407;51.828;-2.298;2024-01-25T01:40:35;9.43;;;3.33;;
34896;SDS011;43407;51.828;-2.298;2024-01-25T01:43:00;14.57;;;3.72;;
34896;SDS011;43407;51.828;-2.298;2024-01-25T01:45:26;15.27;;;3.40;;
34896;SDS011;43407;51.828;-2.298;2024-01-25T01:47:52;21.60;;;4.13;;
34896;SDS011;43407;51.828;-2.298;2024-01-25T01:50:17;17.05;;;4.00;;
34896;SDS011;43407;51.828;-2.298;2024-01-25T01:52:43;21.70;;;4.47;;
34896;SDS011;43407;51.828;-2.298;2024-01-25T01:55:08;20.05;;;4.70;;
34896;SDS011;43407;51.828;-2.298;2024-01-25T01:57:34;16.52;;;4.05;;
34896;SDS011;43407;51.828;-2.298;2024-01-25T02:00:00;18.15;;;4.00;;
34896;SDS011;43407;51.828;-2.298;2024-01-25T02:02:25;19.45;;;4.63;;
34896;SDS011;43407;51.828;-2.298;2024-01-25T02:04:51;16.52;;;4.15;;
34896;SDS011;43407;51.828;-2.298;2024-01-25T02:07:17;10.45;;;3.33;;
34896;SDS011;43407;51.828;-2.298;2024-01-25T02:09:42;10.23;;;2.88;;
34896;SDS011;43407;51.828;-2.298;2024-01-25T02:12:07;13.35;;;3.25;;
34896;SDS011;43407;51.828;-2.298;2024-01-25T02:14:33;11.07;;;3.30;;
34896;SDS011;43407;51.828;-2.298;2024-01-25T02:16:58;9.77;;;3.55;;
34896;SDS011;43407;51.828;-2.298;2024-01-25T02:19:23;8.85;;;3.22;;
34896;SDS011;43407;51.828;-2.298;2024-01-25T02:21:49;11.57;;;3.45;;
34896;SDS011;43407;51.828;-2.298;2024-01-25T02:24:16;8.32;;;3.20;;
34896;SDS011;43407;51.828;-2.298;2024-01-25T02:26:41;8.32;;;3.17;;
34896;SDS011;43407;51.828;-2.298;2024-01-25T02:29:07;12.80;;;3.17;;
34896;SDS011;43407;51.828;-2.298;2024-01-25T02:31:33;11.13;;;3.47;;
34896;SDS011;43407;51.828;-2.298;2024-01-25T02:33:58;11.52;;;2.97;;
34896;SDS011;43407;51.828;-2.298;2024-01-25T02:36:24;10.75;;;3.58;;
34896;SDS011;43407;51.828;-2.298;2024-01-25T02:38:49;11.18;;;3.28;;
34896;SDS011;43407;51.828;-2.298;2024-01-25T02:41:14;9.77;;;2.88;;
34896;SDS011;43407;51.828;-2.298;2024-01-25T02:43:39;5.75;;;2.13;;
34896;SDS011;43407;51.828;-2.298;2024-01-25T02:46:05;12.43;;;3.13;;
34896;SDS011;43407;51.828;-2.298;2024-01-25T02:48:31;11.02;;;2.83;;
34896;SDS011;43407;51.828;-2.298;2024-01-25T02:50:56;11.43;;;2.95;;
34896;SDS011;43407;51.828;-2.298;2024-01-25T02:53:22;11.60;;;3.10;;
34896;SDS011;43407;51.828;-2.298;2024-01-25T02:55:47;11.18;;;3.50;;
34896;SDS011;43407;51.828;-2.298;2024-01-25T02:58:12;9.65;;;3.25;;
34896;SDS011;43407;51.828;-2.298;2024-01-25T03:00:38;10.90;;;3.17;;
34896;SDS011;43407;51.828;-2.298;2024-01-25T03:03:03;12.98;;;3.08;;
34896;SDS011;43407;51.828;-2.298;2024-01-25T03:05:28;11.43;;;3.65;;
34896;SDS011;43407;51.828;-2.298;2024-01-25T03:07:54;12.38;;;3.45;;
34896;SDS011;43407;51.828;-2.298;2024-01-25T03:10:19;11.88;;;3.10;;
34896;SDS011;43407;51.828;-2.298;2024-01-25T03:12:45;13.45;;;2.90;;
34896;SDS011;43407;51.828;-2.298;2024-01-25T03:15:10;8.27;;;2.72;;
34896;SDS011;43407;51.828;-2.298;2024-01-25T03:17:36;23.88;;;5.55;;
34896;SDS011;43407;51.828;-2.298;2024-01-25T03:20:01;38.33;;;6.47;;
34896;SDS011;43407;51.828;-2.298;2024-01-25T03:22:27;22.48;;;4.97;;
34896;SDS011;43407;51.828;-2.298;2024-01-25T03:24:52;33.80;;;5.38;;
34896;SDS011;43407;51.828;-2.298;2024-01-25T03:27:17;27.60;;;5.65;;
34896;SDS011;43407;51.828;-2.298;2024-01-25T03:29:43;26.10;;;4.97;;
34896;SDS011;43407;51.828;-2.298;2024-01-25T03:32:11;20.52;;;4.82;;
34896;SDS011;43407;51.828;-2.298;2024-01-25T03:34:37;26.45;;;5.18;;
34896;SDS011;43407;51.828;-2.298;2024-01-25T03:37:02;30.20;;;5.90;;
34896;SDS011;43407;51.828;-2.298;2024-01-25T03:39:28;40.70;;;7.72;;
34896;SDS011;43407;51.828;-2.298;2024-01-25T03:41:53;26.70;;;5.57;;
34896;SDS011;43407;51.828;-2.298;2024-01-25T03:44:19;35.80;;;6.20;;
34896;SDS011;43407;51.828;-2.298;2024-01-25T03:46:44;31.92;;;5.85;;
34896;SDS011;43407;51.828;-2.298;2024-01-25T03:49:09;29.42;;;5.95;;
34896;SDS011;43407;51.828;-2.298;2024-01-25T03:51:34;33.67;;;6.15;;
34896;SDS011;43407;51.828;-2.298;2024-01-25T03:54:00;27.67;;;5.53;;
34896;SDS011;43407;51.828;-2.298;2024-01-25T03:56:25;25.63;;;5.07;;
34896;SDS011;43407;51.828;-2.298;2024-01-25T03:58:52;21.50;;;4.93;;
34896;SDS011;43407;51.828;-2.298;2024-01-25T04:01:17;34.13;;;6.00;;
34896;SDS011;43407;51.828;-2.298;2024-01-25T04:03:42;24.10;;;5.85;;
34896;SDS011;43407;51.828;-2.298;2024-01-25T04:06:08;25.05;;;5.55;;
34896;SDS011;43407;51.828;-2.298;2024-01-25T04:08:33;25.10;;;5.15;;
34896;SDS011;43407;51.828;-2.298;2024-01-25T04:10:58;21.48;;;5.22;;
34896;SDS011;43407;51.828;-2.298;2024-01-25T04:13:24;28.08;;;5.75;;
34896;SDS011;43407;51.828;-2.298;2024-01-25T04:15:50;14.05;;;4.80;;
34896;SDS011;43407;51.828;-2.298;2024-01-25T04:18:16;18.20;;;4.30;;
34896;SDS011;43407;51.828;-2.298;2024-01-25T04:20:41;18.08;;;4.70;;
34896;SDS011;43407;51.828;-2.298;2024-01-25T04:23:06;14.93;;;4.20;;
34896;SDS011;43407;51.828;-2.298;2024-01-25T04:25:32;22.30;;;4.95;;
34896;SDS011;43407;51.828;-2.298;2024-01-25T04:27:57;19.17;;;4.50;;
34896;SDS011;43407;51.828;-2.298;2024-01-25T04:30:22;15.55;;;4.47;;
34896;SDS011;43407;51.828;-2.298;2024-01-25T04:32:48;15.23;;;3.97;;
34896;SDS011;43407;51.828;-2.298;2024-01-25T04:35:13;11.27;;;3.53;;
34896;SDS011;43407;51.828;-2.298;2024-01-25T04:37:38;15.05;;;4.47;;
34896;SDS011;43407;51.828;-2.298;2024-01-25T04:40:04;19.05;;;4.82;;
34896;SDS011;43407;51.828;-2.298;2024-01-25T04:42:30;15.98;;;4.53;;
34896;SDS011;43407;51.828;-2.298;2024-01-25T04:44:55;14.32;;;4.03;;
34896;SDS011;43407;51.828;-2.298;2024-01-25T04:47:21;14.65;;;3.85;;
34896;SDS011;43407;51.828;-2.298;2024-01-25T04:49:46;11.45;;;3.50;;
34896;SDS011;43407;51.828;-2.298;2024-01-25T04:52:12;11.02;;;3.05;;
34896;SDS011;43407;51.828;-2.298;2024-01-25T04:54:37;5.13;;;2.30;;
34896;SDS011;43407;51.828;-2.298;2024-01-25T04:57:02;10.02;;;2.88;;
34896;SDS011;43407;51.828;-2.298;2024-01-25T04:59:31;5.97;;;2.47;;
34896;SDS011;43407;51.828;-2.298;2024-01-25T05:01:56;6.63;;;2.28;;
34896;SDS011;43407;51.828;-2.298;2024-01-25T05:04:23;6.70;;;2.30;;
34896;SDS011;43407;51.828;-2.298;2024-01-25T05:06:48;3.78;;;2.00;;
34896;SDS011;43407;51.828;-2.298;2024-01-25T05:09:13;4.35;;;1.85;;
34896;SDS011;43407;51.828;-2.298;2024-01-25T05:11:39;3.92;;;1.67;;
34896;SDS011;43407;51.828;-2.298;2024-01-25T05:14:05;3.33;;;1.73;;
34896;SDS011;43407;51.828;-2.298;2024-01-25T05:16:30;4.63;;;1.92;;
34896;SDS011;43407;51.828;-2.298;2024-01-25T05:18:55;4.75;;;2.03;;
34896;SDS011;43407;51.828;-2.298;2024-01-25T05:21:20;4.65;;;1.95;;
34896;SDS011;43407;51.828;-2.298;2024-01-25T05:23:46;3.65;;;1.88;;
34896;SDS011;43407;51.828;-2.298;2024-01-25T05:26:11;6.20;;;2.40;;
34896;SDS011;43407;51.828;-2.298;2024-01-25T05:28:36;5.15;;;2.40;;
34896;SDS011;43407;51.828;-2.298;2024-01-25T05:31:02;5.10;;;2.20;;
34896;SDS011;43407;51.828;-2.298;2024-01-25T05:33:27;5.80;;;2.40;;
34896;SDS011;43407;51.828;-2.298;2024-01-25T05:35:52;3.60;;;2.38;;
34896;SDS011;43407;51.828;-2.298;2024-01-25T05:38:17;5.18;;;2.28;;
34896;SDS011;43407;51.828;-2.298;2024-01-25T05:40:43;6.43;;;2.50;;
34896;SDS011;43407;51.828;-2.298;2024-01-25T05:43:08;3.58;;;2.45;;
34896;SDS011;43407;51.828;-2.298;2024-01-25T05:45:33;4.40;;;2.20;;
34896;SDS011;43407;51.828;-2.298;2024-01-25T05:47:59;3.95;;;2.05;;
34896;SDS011;43407;51.828;-2.298;2024-01-25T05:50:24;6.13;;;2.50;;
34896;SDS011;43407;51.828;-2.298;2024-01-25T05:52:49;2.50;;;2.20;;
34896;SDS011;43407;51.828;-2.298;2024-01-25T05:55:14;3.45;;;2.20;;
34896;SDS011;43407;51.828;-2.298;2024-01-25T05:57:41;4.30;;;2.10;;
34896;SDS011;43407;51.828;-2.298;2024-01-25T06:00:07;5.45;;;1.90;;
34896;SDS011;43407;51.828;-2.298;2024-01-25T06:02:33;2.95;;;2.13;;
34896;SDS011;43407;51.828;-2.298;2024-01-25T06:04:58;4.45;;;2.47;;
34896;SDS011;43407;51.828;-2.298;2024-01-25T06:07:24;2.28;;;2.00;;
34896;SDS011;43407;51.828;-2.298;2024-01-25T06:09:50;3.13;;;2.05;;
34896;SDS011;43407;51.828;-2.298;2024-01-25T06:12:15;3.45;;;2.08;;
34896;SDS011;43407;51.828;-2.298;2024-01-25T06:14:40;2.30;;;1.70;;
34896;SDS011;43407;51.828;-2.298;2024-01-25T06:17:06;2.95;;;1.80;;
34896;SDS011;43407;51.828;-2.298;2024-01-25T06:19:31;2.22;;;1.67;;
34896;SDS011;43407;51.828;-2.298;2024-01-25T06:21:58;4.00;;;1.40;;
34896;SDS011;43407;51.828;-2.298;2024-01-25T06:24:23;2.28;;;1.75;;
34896;SDS011;43407;51.828;-2.298;2024-01-25T06:26:49;4.10;;;1.42;;
34896;SDS011;43407;51.828;-2.298;2024-01-25T06:29:14;3.22;;;2.22;;
34896;SDS011;43407;51.828;-2.298;2024-01-25T06:31:42;4.63;;;1.77;;
34896;SDS011;43407;51.828;-2.298;2024-01-25T06:34:08;3.33;;;1.60;;
34896;SDS011;43407;51.828;-2.298;2024-01-25T06:36:33;2.13;;;1.52;;
34896;SDS011;43407;51.828;-2.298;2024-01-25T06:38:59;3.10;;;1.63;;
34896;SDS011;43407;51.828;-2.298;2024-01-25T06:41:24;1.55;;;1.27;;
34896;SDS011;43407;51.828;-2.298;2024-01-25T06:43:50;1.45;;;1.20;;
34896;SDS011;43407;51.828;-2.298;2024-01-25T06:46:15;6.85;;;1.30;;
34896;SDS011;43407;51.828;-2.298;2024-01-25T06:48:40;2.13;;;1.17;;
34896;SDS011;43407;51.828;-2.298;2024-01-25T06:51:06;1.52;;;1.00;;
34896;SDS011;43407;51.828;-2.298;2024-01-25T06:53:31;1.98;;;1.40;;
34896;SDS011;43407;51.828;-2.298;2024-01-25T06:55:57;1.83;;;1.02;;
34896;SDS011;43407;51.828;-2.298;2024-01-25T06:58:22;1.23;;;1.00;;
34896;SDS011;43407;51.828;-2.298;2024-01-25T07:00:48;1.35;;;1.10;;
34896;SDS011;43407;51.828;-2.298;2024-01-25T07:03:13;3.15;;;1.67;;
34896;SDS011;43407;51.828;-2.298;2024-01-25T07:05:40;3.30;;;1.50;;
34896;SDS011;43407;51.828;-2.298;2024-01-25T07:08:05;1.38;;;1.23;;
34896;SDS011;43407;51.828;-2.298;2024-01-25T07:10:32;1.52;;;1.42;;
34896;SDS011;43407;51.828;-2.298;2024-01-25T07:12:58;1.50;;;1.40;;
34896;SDS011;43407;51.828;-2.298;2024-01-25T07:15:23;2.72;;;1.38;;
34896;SDS011;43407;51.828;-2.298;2024-01-25T07:17:48;2.10;;;1.58;;
34896;SDS011;43407;51.828;-2.298;2024-01-25T07:20:14;3.25;;;1.92;;
34896;SDS011;43407;51.828;-2.298;2024-01-25T07:22:40;2.40;;;1.80;;
34896;SDS011;43407;51.828;-2.298;2024-01-25T07:25:06;1.60;;;1.45;;
34896;SDS011;43407;51.828;-2.298;2024-01-25T07:27:31;1.65;;;1.50;;
34896;SDS011;43407;51.828;-2.298;2024-01-25T07:29:56;1.92;;;1.65;;
34896;SDS011;43407;51.828;-2.298;2024-01-25T07:32:22;1.83;;;1.65;;
34896;SDS011;43407;51.828;-2.298;2024-01-25T07:34:49;3.33;;;1.70;;
34896;SDS011;43407;51.828;-2.298;2024-01-25T07:37:14;2.15;;;1.90;;
34896;SDS011;43407;51.828;-2.298;2024-01-25T07:39:40;2.55;;;1.55;;
34896;SDS011;43407;51.828;-2.298;2024-01-25T07:42:06;1.70;;;1.60;;
34896;SDS011;43407;51.828;-2.298;2024-01-25T07:44:31;1.70;;;1.55;;
34896;SDS011;43407;51.828;-2.298;2024-01-25T07:46:56;2.78;;;1.50;;
34896;SDS011;43407;51.828;-2.298;2024-01-25T07:49:22;2.55;;;2.35;;
34896;SDS011;43407;51.828;-2.298;2024-01-25T07:51:47;1.70;;;1.55;;
34896;SDS011;43407;51.828;-2.298;2024-01-25T07:54:12;2.83;;;2.20;;
34896;SDS011;43407;51.828;-2.298;2024-01-25T07:56:38;3.53;;;2.35;;
34896;SDS011;43407;51.828;-2.298;2024-01-25T07:59:04;2.65;;;2.42;;
34896;SDS011;43407;51.828;-2.298;2024-01-25T08:01:29;6.10;;;3.38;;
34896;SDS011;43407;51.828;-2.298;2024-01-25T08:03:54;3.03;;;2.72;;
34896;SDS011;43407;51.828;-2.298;2024-01-25T08:06:20;4.10;;;2.95;;
34896;SDS011;43407;51.828;-2.298;2024-01-25T08:08:46;2.85;;;2.60;;
34896;SDS011;43407;51.828;-2.298;2024-01-25T08:11:11;4.13;;;2.92;;
34896;SDS011;43407;51.828;-2.298;2024-01-25T08:13:36;4.82;;;2.30;;
34896;SDS011;43407;51.828;-2.298;2024-01-25T08:16:02;3.15;;;2.70;;
34896;SDS011;43407;51.828;-2.298;2024-01-25T08:18:27;3.53;;;2.47;;
34896;SDS011;43407;51.828;-2.298;2024-01-25T08:20:54;3.30;;;3.00;;
34896;SDS011;43407;51.828;-2.298;2024-01-25T08:23:20;7.65;;;3.53;;
34896;SDS011;43407;51.828;-2.298;2024-01-25T08:25:46;2.75;;;2.50;;
34896;SDS011;43407;51.828;-2.298;2024-01-25T08:28:11;2.88;;;2.60;;
34896;SDS011;43407;51.828;-2.298;2024-01-25T08:30:37;3.55;;;2.72;;
34896;SDS011;43407;51.828;-2.298;2024-01-25T08:33:02;4.78;;;2.60;;
34896;SDS011;43407;51.828;-2.298;2024-01-25T08:35:28;3.08;;;2.80;;
34896;SDS011;43407;51.828;-2.298;2024-01-25T08:37:53;2.88;;;2.63;;
34896;SDS011;43407;51.828;-2.298;2024-01-25T08:40:19;3.88;;;2.72;;
34896;SDS011;43407;51.828;-2.298;2024-01-25T08:42:44;2.45;;;2.20;;
34896;SDS011;43407;51.828;-2.298;2024-01-25T08:45:10;3.03;;;2.30;;
34896;SDS011;43407;51.828;-2.298;2024-01-25T08:47:35;2.50;;;2.30;;
34896;SDS011;43407;51.828;-2.298;2024-01-25T08:50:01;2.38;;;2.13;;
34896;SDS011;43407;51.828;-2.298;2024-01-25T08:52:26;3.22;;;2.10;;
34896;SDS011;43407;51.828;-2.298;2024-01-25T08:54:52;2.80;;;2.60;;
34896;SDS011;43407;51.828;-2.298;2024-01-25T08:57:17;2.95;;;2.13;;
34896;SDS011;43407;51.828;-2.298;2024-01-25T08:59:42;4.38;;;2.42;;
34896;SDS011;43407;51.828;-2.298;2024-01-25T09:02:08;2.60;;;2.40;;
34896;SDS011;43407;51.828;-2.298;2024-01-25T09:04:33;4.32;;;3.28;;
34896;SDS011;43407;51.828;-2.298;2024-01-25T09:06:59;7.22;;;3.60;;
34896;SDS011;43407;51.828;-2.298;2024-01-25T09:09:24;5.15;;;4.63;;
34896;SDS011;43407;51.828;-2.298;2024-01-25T09:11:49;4.60;;;3.40;;
34896;SDS011;43407;51.828;-2.298;2024-01-25T09:14:15;5.38;;;3.67;;
34896;SDS011;43407;51.828;-2.298;2024-01-25T09:16:40;4.88;;;4.30;;
34896;SDS011;43407;51.828;-2.298;2024-01-25T09:19:05;5.35;;;3.78;;
34896;SDS011;43407;51.828;-2.298;2024-01-25T09:21:31;5.10;;;4.15;;
34896;SDS011;43407;51.828;-2.298;2024-01-25T09:23:56;4.45;;;3.70;;
34896;SDS011;43407;51.828;-2.298;2024-01-25T09:26:21;4.65;;;3.60;;
34896;SDS011;43407;51.828;-2.298;2024-01-25T09:28:47;6.55;;;4.78;;
34896;SDS011;43407;51.828;-2.298;2024-01-25T09:31:12;8.60;;;4.78;;
34896;SDS011;43407;51.828;-2.298;2024-01-25T09:33:37;5.18;;;4.00;;
34896;SDS011;43407;51.828;-2.298;2024-01-25T09:36:03;6.32;;;3.97;;
34896;SDS011;43407;51.828;-2.298;2024-01-25T09:38:28;5.57;;;3.28;;
34896;SDS011;43407;51.828;-2.298;2024-01-25T09:40:53;7.00;;;3.97;;
34896;SDS011;43407;51.828;-2.298;2024-01-25T09:43:19;6.47;;;4.10;;
34896;SDS011;43407;51.828;-2.298;2024-01-25T09:45:52;9.00;;;4.57;;
34896;SDS011;43407;51.828;-2.298;2024-01-25T09:48:19;5.13;;;4.30;;
34896;SDS011;43407;51.828;-2.298;2024-01-25T09:50:46;7.22;;;4.65;;
34896;SDS011;43407;51.828;-2.298;2024-01-25T09:53:12;7.15;;;5.30;;
34896;SDS011;43407;51.828;-2.298;2024-01-25T09:55:38;7.72;;;4.82;;
34896;SDS011;43407;51.828;-2.298;2024-01-25T09:58:05;4.43;;;4.03;;
34896;SDS011;43407;51.828;-2.298;2024-01-25T10:00:32;7.05;;;4.40;;
34896;SDS011;43407;51.828;-2.298;2024-01-25T10:02:58;5.82;;;3.95;;
34896;SDS011;43407;51.828;-2.298;2024-01-25T10:05:23;6.85;;;3.88;;
34896;SDS011;43407;51.828;-2.298;2024-01-25T10:07:48;6.13;;;4.35;;
34896;SDS011;43407;51.828;-2.298;2024-01-25T10:10:14;6.30;;;3.88;;
34896;SDS011;43407;51.828;-2.298;2024-01-25T10:12:40;7.03;;;3.88;;
34896;SDS011;43407;51.828;-2.298;2024-01-25T10:15:05;4.70;;;2.97;;
34896;SDS011;43407;51.828;-2.298;2024-01-25T10:17:31;8.00;;;2.80;;
34896;SDS011;43407;51.828;-2.298;2024-01-25T10:19:56;6.47;;;2.90;;
34896;SDS011;43407;51.828;-2.298;2024-01-25T10:22:22;4.70;;;2.63;;
34896;SDS011;43407;51.828;-2.298;2024-01-25T10:24:47;4.72;;;2.53;;
34896;SDS011;43407;51.828;-2.298;2024-01-25T10:27:15;5.63;;;2.78;;
34896;SDS011;43407;51.828;-2.298;2024-01-25T10:29:41;4.10;;;2.42;;
34896;SDS011;43407;51.828;-2.298;2024-01-25T10:32:06;3.75;;;2.08;;
34896;SDS011;43407;51.828;-2.298;2024-01-25T10:34:33;6.40;;;2.65;;
34896;SDS011;43407;51.828;-2.298;2024-01-25T10:37:00;5.15;;;2.30;;
34896;SDS011;43407;51.828;-2.298;2024-01-25T10:39:26;6.00;;;2.45;;
34896;SDS011;43407;51.828;-2.298;2024-01-25T10:41:53;2.90;;;1.42;;
34896;SDS011;43407;51.828;-2.298;2024-01-25T10:44:18;5.68;;;1.83;;
34896;SDS011;43407;51.828;-2.298;2024-01-25T10:46:46;3.65;;;1.80;;
34896;SDS011;43407;51.828;-2.298;2024-01-25T10:49:12;5.07;;;1.60;;
34896;SDS011;43407;51.828;-2.298;2024-01-25T10:51:37;4.93;;;1.80;;
34896;SDS011;43407;51.828;-2.298;2024-01-25T10:54:04;3.97;;;1.50;;
34896;SDS011;43407;51.828;-2.298;2024-01-25T10:56:32;2.15;;;1.42;;
34896;SDS011;43407;51.828;-2.298;2024-01-25T10:58:57;2.03;;;1.55;;
34896;SDS011;43407;51.828;-2.298;2024-01-25T11:01:24;3.17;;;1.50;;
34896;SDS011;43407;51.828;-2.298;2024-01-25T11:03:49;3.67;;;1.60;;
34896;SDS011;43407;51.828;-2.298;2024-01-25T11:06:15;4.03;;;2.25;;
34896;SDS011;43407;51.828;-2.298;2024-01-25T11:08:40;7.13;;;2.92;;
34896;SDS011;43407;51.828;-2.298;2024-01-25T11:11:06;5.05;;;3.08;;
34896;SDS011;43407;51.828;-2.298;2024-01-25T11:13:34;5.15;;;3.03;;
34896;SDS011;43407;51.828;-2.298;2024-01-25T11:16:45;5.38;;;3.10;;
34896;SDS011;43407;51.828;-2.298;2024-01-25T11:18:53;6.45;;;3.25;;
34896;SDS011;43407;51.828;-2.298;2024-01-25T11:21:22;7.77;;;3.60;;
34896;SDS011;43407;51.828;-2.298;2024-01-25T11:23:48;5.82;;;3.20;;
34896;SDS011;43407;51.828;-2.298;2024-01-25T11:26:15;8.40;;;3.53;;
34896;SDS011;43407;51.828;-2.298;2024-01-25T11:28:40;9.57;;;3.88;;
34896;SDS011;43407;51.828;-2.298;2024-01-25T11:31:05;5.30;;;3.30;;
34896;SDS011;43407;51.828;-2.298;2024-01-25T11:33:31;5.15;;;2.67;;
34896;SDS011;43407;51.828;-2.298;2024-01-25T11:35:57;8.45;;;3.33;;
34896;SDS011;43407;51.828;-2.298;2024-01-25T11:38:22;7.60;;;2.50;;
34896;SDS011;43407;51.828;-2.298;2024-01-25T11:40:48;7.82;;;2.50;;
34896;SDS011;43407;51.828;-2.298;2024-01-25T11:43:13;5.05;;;2.38;;
34896;SDS011;43407;51.828;-2.298;2024-01-25T11:45:39;6.75;;;1.98;;
34896;SDS011;43407;51.828;-2.298;2024-01-25T11:48:07;7.07;;;1.90;;
34896;SDS011;43407;51.828;-2.298;2024-01-25T11:50:32;8.88;;;1.90;;
34896;SDS011;43407;51.828;-2.298;2024-01-25T11:52:58;7.20;;;2.33;;
34896;SDS011;43407;51.828;-2.298;2024-01-25T11:55:23;9.13;;;2.67;;
34896;SDS011;43407;51.828;-2.298;2024-01-25T11:57:48;6.35;;;2.20;;
34896;SDS011;43407;51.828;-2.298;2024-01-25T12:00:14;9.35;;;2.45;;
34896;SDS011;43407;51.828;-2.298;2024-01-25T12:02:40;6.03;;;2.03;;
34896;SDS011;43407;51.828;-2.298;2024-01-25T12:05:06;6.88;;;1.95;;
34896;SDS011;43407;51.828;-2.298;2024-01-25T12:07:32;8.80;;;2.20;;
34896;SDS011;43407;51.828;-2.298;2024-01-25T12:10:04;6.90;;;2.05;;
34896;SDS011;43407;51.828;-2.298;2024-01-25T12:12:29;5.43;;;1.98;;
34896;SDS011;43407;51.828;-2.298;2024-01-25T12:14:58;5.32;;;1.85;;
34896;SDS011;43407;51.828;-2.298;2024-01-25T12:17:25;5.72;;;1.92;;
34896;SDS011;43407;51.828;-2.298;2024-01-25T12:19:51;10.68;;;2.28;;
34896;SDS011;43407;51.828;-2.298;2024-01-25T12:22:19;8.52;;;2.10;;
34896;SDS011;43407;51.828;-2.298;2024-01-25T12:24:45;6.82;;;2.05;;
34896;SDS011;43407;51.828;-2.298;2024-01-25T12:27:11;7.80;;;1.73;;
34896;SDS011;43407;51.828;-2.298;2024-01-25T12:29:36;6.35;;;1.58;;
34896;SDS011;43407;51.828;-2.298;2024-01-25T12:32:02;7.15;;;1.55;;
34896;SDS011;43407;51.828;-2.298;2024-01-25T12:34:27;2.75;;;1.60;;
34896;SDS011;43407;51.828;-2.298;2024-01-25T12:36:53;7.50;;;1.90;;
34896;SDS011;43407;51.828;-2.298;2024-01-25T12:39:18;6.47;;;1.80;;
34896;SDS011;43407;51.828;-2.298;2024-01-25T12:41:43;4.30;;;1.50;;
34896;SDS011;43407;51.828;-2.298;2024-01-25T12:44:09;8.25;;;1.73;;
34896;SDS011;43407;51.828;-2.298;2024-01-25T12:46:34;6.88;;;1.77;;
34896;SDS011;43407;51.828;-2.298;2024-01-25T12:48:59;5.22;;;1.73;;
34896;SDS011;43407;51.828;-2.298;2024-01-25T12:51:24;6.63;;;1.60;;
34896;SDS011;43407;51.828;-2.298;2024-01-25T12:53:50;6.70;;;1.65;;
34896;SDS011;43407;51.828;-2.298;2024-01-25T12:56:15;9.15;;;1.48;;
34896;SDS011;43407;51.828;-2.298;2024-01-25T12:58:41;7.82;;;1.75;;
34896;SDS011;43407;51.828;-2.298;2024-01-25T13:01:06;4.88;;;1.58;;
34896;SDS011;43407;51.828;-2.298;2024-01-25T13:03:31;6.15;;;1.75;;
34896;SDS011;43407;51.828;-2.298;2024-01-25T13:05:57;8.57;;;2.05;;
34896;SDS011;43407;51.828;-2.298;2024-01-25T13:08:22;3.38;;;1.50;;
34896;SDS011;43407;51.828;-2.298;2024-01-25T13:10:47;5.55;;;1.65;;
34896;SDS011;43407;51.828;-2.298;2024-01-25T13:13:13;7.28;;;1.60;;
34896;SDS011;43407;51.828;-2.298;2024-01-25T13:15:38;12.45;;;1.98;;
34896;SDS011;43407;51.828;-2.298;2024-01-25T13:18:03;7.40;;;1.50;;
34896;SDS011;43407;51.828;-2.298;2024-01-25T13:20:29;3.50;;;1.17;;
34896;SDS011;43407;51.828;-2.298;2024-01-25T13:22:54;7.80;;;1.73;;
34896;SDS011;43407;51.828;-2.298;2024-01-25T13:25:19;6.75;;;1.83;;
34896;SDS011;43407;51.828;-2.298;2024-01-25T13:27:45;5.55;;;1.50;;
34896;SDS011;43407;51.828;-2.298;2024-01-25T13:30:10;5.35;;;1.58;;
34896;SDS011;43407;51.828;-2.298;2024-01-25T13:32:37;5.47;;;1.70;;
34896;SDS011;43407;51.828;-2.298;2024-01-25T13:35:02;5.72;;;1.55;;
34896;SDS011;43407;51.828;-2.298;2024-01-25T13:37:28;6.88;;;1.52;;
34896;SDS011;43407;51.828;-2.298;2024-01-25T13:39:53;5.80;;;1.45;;
34896;SDS011;43407;51.828;-2.298;2024-01-25T13:42:18;4.95;;;1.40;;
34896;SDS011;43407;51.828;-2.298;2024-01-25T13:44:44;4.68;;;1.67;;
34896;SDS011;43407;51.828;-2.298;2024-01-25T13:47:09;4.65;;;1.85;;
34896;SDS011;43407;51.828;-2.298;2024-01-25T13:49:35;5.53;;;1.92;;
34896;SDS011;43407;51.828;-2.298;2024-01-25T13:52:00;5.60;;;1.55;;
34896;SDS011;43407;51.828;-2.298;2024-01-25T13:54:27;4.93;;;1.60;;
34896;SDS011;43407;51.828;-2.298;2024-01-25T13:56:54;3.92;;;1.25;;
34896;SDS011;43407;51.828;-2.298;2024-01-25T13:59:20;5.13;;;1.48;;
34896;SDS011;43407;51.828;-2.298;2024-01-25T14:01:45;3.92;;;1.20;;
34896;SDS011;43407;51.828;-2.298;2024-01-25T14:04:11;4.70;;;1.40;;
34896;SDS011;43407;51.828;-2.298;2024-01-25T14:06:37;2.85;;;1.02;;
34896;SDS011;43407;51.828;-2.298;2024-01-25T14:09:02;3.03;;;1.25;;
34896;SDS011;43407;51.828;-2.298;2024-01-25T14:11:28;3.28;;;1.40;;
34896;SDS011;43407;51.828;-2.298;2024-01-25T14:13:53;4.05;;;1.30;;
34896;SDS011;43407;51.828;-2.298;2024-01-25T14:16:18;4.28;;;1.50;;
34896;SDS011;43407;51.828;-2.298;2024-01-25T14:18:44;3.00;;;1.30;;
34896;SDS011;43407;51.828;-2.298;2024-01-25T14:21:09;5.53;;;1.30;;